createdAt,value
2023-10-16T00:00:30.911Z,100.00
2023-10-16T00:03:23.940Z,100.00
2023-10-16T00:05:57.484Z,100.00
2023-10-16T00:08:29.489Z,100.00
2023-10-16T00:11:02.877Z,100.00
2023-10-16T00:13:38.652Z,100.00
2023-10-16T00:16:16.420Z,100.00
2023-10-16T00:18:49.021Z,100.00
2023-10-16T00:21:21.357Z,100.00
2023-10-16T00:23:53.721Z,100.00
2023-10-16T00:26:25.948Z,100.00
2023-10-16T00:29:09.184Z,100.00
2023-10-16T00:31:44.793Z,100.00
2023-10-16T00:34:21.471Z,100.00
2023-10-16T00:36:55.434Z,100.00
2023-10-16T00:39:30.659Z,100.00
2023-10-16T00:42:04.073Z,100.00
2023-10-16T00:44:36.959Z,100.00
2023-10-16T00:47:11.263Z,100.00
2023-10-16T00:49:44.651Z,100.00
2023-10-16T00:52:17.650Z,100.00
2023-10-16T00:54:50.850Z,100.00
2023-10-16T00:57:28.770Z,100.00
2023-10-16T01:00:01.309Z,100.00
2023-10-16T01:02:36.025Z,100.00
2023-10-16T01:05:10.123Z,100.00
2023-10-16T01:07:42.103Z,100.00
2023-10-16T01:10:14.474Z,100.00
2023-10-16T01:12:56.314Z,100.00
2023-10-16T01:15:28.875Z,100.00
2023-10-16T01:18:00.635Z,100.00
2023-10-16T01:20:32.967Z,100.00
2023-10-16T01:23:08.704Z,100.00
2023-10-16T01:25:41.602Z,100.00
2023-10-16T01:28:16.793Z,100.00
2023-10-16T01:30:50.728Z,100.00
2023-10-16T01:33:24.683Z,100.00
2023-10-16T01:35:56.620Z,100.00
2023-10-16T01:38:29.198Z,100.00
2023-10-16T01:41:08.729Z,100.00
2023-10-16T01:43:40.544Z,100.00
2023-10-16T01:46:14.533Z,100.00
2023-10-16T01:48:48.492Z,100.00
2023-10-16T01:51:21.314Z,100.00
2023-10-16T01:53:53.458Z,100.00
2023-10-16T01:56:25.845Z,100.00
2023-10-16T01:58:58.603Z,100.00
2023-10-16T02:01:30.980Z,100.00
2023-10-16T02:04:05.057Z,100.00
2023-10-16T02:06:37.159Z,100.00
2023-10-16T02:09:15.014Z,100.00
2023-10-16T02:11:47.421Z,100.00
2023-10-16T02:14:18.969Z,100.00
2023-10-16T02:16:53.223Z,100.00
2023-10-16T02:19:26.517Z,100.00
2023-10-16T02:21:57.928Z,100.00
2023-10-16T02:24:30.591Z,100.00
2023-10-16T02:27:03.901Z,100.00
2023-10-16T02:29:36.265Z,100.00
2023-10-16T02:32:11.595Z,100.00
2023-10-16T02:34:43.492Z,100.00
2023-10-16T02:37:17.881Z,100.00
2023-10-16T02:39:55.785Z,100.00
2023-10-16T02:42:29.528Z,100.00
2023-10-16T02:45:01.149Z,100.00
2023-10-16T02:47:33.732Z,100.00
2023-10-16T02:50:09.629Z,100.00
2023-10-16T02:52:41.337Z,100.00
2023-10-16T02:55:15.425Z,100.00
2023-10-16T02:57:47.312Z,100.00
2023-10-16T03:00:26.905Z,100.00
2023-10-16T03:02:59.529Z,100.00
2023-10-16T03:05:31.586Z,100.00
2023-10-16T03:08:03.968Z,100.00
2023-10-16T03:10:38.063Z,100.00
2023-10-16T03:13:10.129Z,100.00
2023-10-16T03:15:47.172Z,100.00
2023-10-16T03:18:21.465Z,100.00
2023-10-16T03:21:03.515Z,100.00
2023-10-16T03:23:36.001Z,100.00
2023-10-16T03:26:10.416Z,100.00
2023-10-16T03:28:41.968Z,100.00
2023-10-16T03:31:14.423Z,100.00
2023-10-16T03:33:46.622Z,100.00
2023-10-16T03:36:19.324Z,100.00
2023-10-16T03:38:52.472Z,100.00
2023-10-16T03:41:29.684Z,100.00
2023-10-16T03:44:09.172Z,100.00
2023-10-16T03:46:43.356Z,100.00
2023-10-16T03:49:16.802Z,100.00
2023-10-16T03:51:49.935Z,100.00
2023-10-16T03:54:32.542Z,100.00
2023-10-16T03:57:11.574Z,100.00
2023-10-16T03:59:44.325Z,100.00
2023-10-16T04:02:21.520Z,100.00
2023-10-16T04:04:55.338Z,100.00
2023-10-16T04:07:27.057Z,100.00
2023-10-16T04:10:15.606Z,100.00
2023-10-16T04:12:52.888Z,100.00
2023-10-16T04:15:47.492Z,100.00
2023-10-16T04:18:32.677Z,100.00
2023-10-16T04:21:22.645Z,100.00
2023-10-16T04:23:58.935Z,100.00
2023-10-16T04:26:49.341Z,100.00
2023-10-16T04:29:35.188Z,100.00
2023-10-16T04:32:28.904Z,100.00
2023-10-16T04:35:04.779Z,100.00
2023-10-16T04:37:38.761Z,100.00
2023-10-16T04:40:44.676Z,100.00
2023-10-16T04:43:20.965Z,100.00
2023-10-16T04:46:16.966Z,100.00
2023-10-16T04:48:52.611Z,100.00
2023-10-16T04:54:29.720Z,100.00
2023-10-16T04:57:31.073Z,100.00
2023-10-16T05:00:29.873Z,100.00
2023-10-16T05:03:24.038Z,100.00
2023-10-16T05:06:05.462Z,100.00
2023-10-16T05:09:00.909Z,100.00
2023-10-16T05:11:37.726Z,100.00
2023-10-16T05:14:23.951Z,100.00
2023-10-16T05:17:23.081Z,100.00
2023-10-16T05:20:14.623Z,100.00
2023-10-16T05:23:03.776Z,100.00
2023-10-16T05:25:54.986Z,100.00
2023-10-16T05:28:44.566Z,100.00
2023-10-16T05:31:45.662Z,100.00
2023-10-16T05:34:34.411Z,100.00
2023-10-16T05:37:24.343Z,100.00
2023-10-16T05:40:14.740Z,100.00
2023-10-16T05:43:04.516Z,100.00
2023-10-16T05:45:54.139Z,100.00
2023-10-16T05:48:43.476Z,100.00
2023-10-16T05:51:32.863Z,100.00
2023-10-16T05:54:23.084Z,100.00
2023-10-16T05:57:12.188Z,100.00
2023-10-16T06:00:01.975Z,100.00
2023-10-16T06:03:01.392Z,100.00
2023-10-16T06:05:51.762Z,100.00
2023-10-16T06:08:41.132Z,100.00
2023-10-16T06:11:31.044Z,100.00
2023-10-16T06:14:15.266Z,100.00
2023-10-16T06:16:48.710Z,100.00
2023-10-16T06:19:21.164Z,100.00
2023-10-16T06:21:54.256Z,100.00
2023-10-16T06:24:34.503Z,100.00
2023-10-16T06:27:10.441Z,100.00
2023-10-16T06:29:51.208Z,100.00
2023-10-16T06:32:24.138Z,100.00
2023-10-16T06:34:59.818Z,100.00
2023-10-16T06:37:33.444Z,100.00
2023-10-16T06:40:17.649Z,100.00
2023-10-16T06:42:49.569Z,100.00
2023-10-16T06:45:24.054Z,100.00
2023-10-16T06:48:00.308Z,100.00
2023-10-16T06:50:36.565Z,100.00
2023-10-16T06:53:08.237Z,100.00
2023-10-16T06:55:40.607Z,100.00
2023-10-16T06:58:13.832Z,100.00
2023-10-16T07:00:48.962Z,100.00
2023-10-16T07:03:22.251Z,100.00
2023-10-16T07:05:55.012Z,100.00
2023-10-16T07:08:27.380Z,100.00
2023-10-16T07:11:04.988Z,100.00
2023-10-16T07:13:40.187Z,100.00
2023-10-16T07:16:12.711Z,100.00
2023-10-16T07:18:45.900Z,100.00
2023-10-16T07:21:19.568Z,100.00
2023-10-16T07:23:54.724Z,100.00
2023-10-16T07:26:28.107Z,100.00
2023-10-16T07:29:00.084Z,100.00
2023-10-16T07:31:31.528Z,100.00
2023-10-16T07:34:05.624Z,100.00
2023-10-16T07:36:38.222Z,100.00
2023-10-16T07:39:10.219Z,100.00
2023-10-16T07:41:44.875Z,100.00
2023-10-16T07:44:16.612Z,100.00
2023-10-16T07:46:49.820Z,100.00
2023-10-16T07:49:26.713Z,100.00
2023-10-16T07:52:01.570Z,100.00
2023-10-16T07:54:38.157Z,100.00
2023-10-16T07:57:12.748Z,100.00
2023-10-16T07:59:49.066Z,100.00
2023-10-16T08:02:21.431Z,100.00
2023-10-16T08:04:54.603Z,100.00
2023-10-16T08:07:47.030Z,100.00
2023-10-16T08:10:43.986Z,100.00
2023-10-16T08:13:17.790Z,100.00
2023-10-16T08:15:51.096Z,100.00
2023-10-16T08:18:27.329Z,100.00
2023-10-16T08:21:09.055Z,100.00
2023-10-16T08:23:47.298Z,100.00
2023-10-16T08:26:29.693Z,100.00
2023-10-16T08:29:13.164Z,100.00
2023-10-16T08:31:45.946Z,100.00
2023-10-16T08:34:21.314Z,100.00
2023-10-16T08:36:53.801Z,100.00
2023-10-16T08:39:26.500Z,100.00
2023-10-16T08:42:03.801Z,100.00
2023-10-16T08:44:36.288Z,100.00
2023-10-16T08:47:17.552Z,100.00
2023-10-16T08:49:59.263Z,100.00
2023-10-16T08:52:36.212Z,100.00
2023-10-16T08:55:17.119Z,100.00
2023-10-16T08:57:50.742Z,100.00
2023-10-16T09:00:24.605Z,100.00
2023-10-16T09:02:58.590Z,100.00
2023-10-16T09:05:31.607Z,100.00
2023-10-16T09:08:06.444Z,100.00
2023-10-16T09:10:43.090Z,100.00
2023-10-16T09:13:20.169Z,100.00
2023-10-16T09:15:59.313Z,100.00
2023-10-16T09:18:32.896Z,100.00
2023-10-16T09:21:14.544Z,100.00
2023-10-16T09:23:53.237Z,100.00
2023-10-16T09:26:30.445Z,100.00
2023-10-16T09:29:06.954Z,100.00
2023-10-16T09:31:39.045Z,100.00
2023-10-16T09:34:11.909Z,100.00
2023-10-16T09:36:48.220Z,100.00
2023-10-16T09:39:31.665Z,100.00
2023-10-16T09:42:08.210Z,100.00
2023-10-16T09:44:40.689Z,100.00
2023-10-16T09:47:30.644Z,100.00
2023-10-16T09:50:18.445Z,100.00
2023-10-16T09:52:50.317Z,100.00
2023-10-16T09:55:25.544Z,100.00
2023-10-16T09:57:59.540Z,100.00
2023-10-16T10:00:34.226Z,100.00
2023-10-16T10:03:09.398Z,100.00
2023-10-16T10:05:49.575Z,100.00
2023-10-16T10:08:29.141Z,100.00
2023-10-16T10:11:29.122Z,100.00
2023-10-16T10:14:21.700Z,100.00
2023-10-16T10:16:58.389Z,100.00
2023-10-16T10:19:37.305Z,100.00
2023-10-16T10:22:18.761Z,100.00
2023-10-16T10:24:53.670Z,100.00
2023-10-16T10:27:25.956Z,100.00
2023-10-16T10:30:03.018Z,100.00
2023-10-16T10:32:35.060Z,100.00
2023-10-16T10:35:28.109Z,100.00
2023-10-16T10:38:18.770Z,100.00
2023-10-16T10:41:07.635Z,100.00
2023-10-16T10:43:47.899Z,100.00
2023-10-16T10:46:28.204Z,100.00
2023-10-16T10:49:04.904Z,100.00
2023-10-16T10:51:38.293Z,100.00
2023-10-16T10:54:11.353Z,100.00
2023-10-16T10:56:49.111Z,100.00
2023-10-16T10:59:33.951Z,100.00
2023-10-16T11:02:22.905Z,100.00
2023-10-16T11:05:00.328Z,100.00
2023-10-16T11:07:41.104Z,100.00
2023-10-16T11:10:15.398Z,100.00
2023-10-16T11:12:47.795Z,100.00
2023-10-16T11:15:20.944Z,100.00
2023-10-16T11:17:53.920Z,100.00
2023-10-16T11:20:32.525Z,100.00
2023-10-16T11:23:14.097Z,100.00
2023-10-16T11:25:47.217Z,100.00
2023-10-16T11:28:21.538Z,100.00
2023-10-16T11:30:55.952Z,100.00
2023-10-16T11:33:29.306Z,100.00
2023-10-16T11:36:04.704Z,100.00
2023-10-16T11:38:36.973Z,100.00
2023-10-16T11:41:13.745Z,100.00
2023-10-16T11:43:52.906Z,100.00
2023-10-16T11:46:32.672Z,100.00
2023-10-16T11:49:19.785Z,100.00
2023-10-16T11:51:52.784Z,100.00
2023-10-16T11:54:25.733Z,100.00
2023-10-16T11:57:01.033Z,100.00
2023-10-16T11:59:33.754Z,100.00
2023-10-16T12:02:12.694Z,100.00
2023-10-16T12:04:45.674Z,100.00
2023-10-16T12:07:18.108Z,100.00
2023-10-16T12:09:53.221Z,100.00
2023-10-16T12:12:26.446Z,100.00
2023-10-16T12:14:58.993Z,100.00
2023-10-16T12:17:30.642Z,100.00
2023-10-16T12:20:10.291Z,100.00
2023-10-16T12:22:41.396Z,100.00
2023-10-16T12:25:14.096Z,100.00
2023-10-16T12:27:45.985Z,100.00
2023-10-16T12:30:18.481Z,100.00
2023-10-16T12:32:50.875Z,100.00
2023-10-16T12:35:24.318Z,100.00
2023-10-16T12:37:58.115Z,100.00
2023-10-16T12:40:35.513Z,100.00
2023-10-16T12:43:08.836Z,100.00
2023-10-16T12:45:42.436Z,100.00
2023-10-16T12:48:15.652Z,100.00
2023-10-16T12:51:03.773Z,100.00
2023-10-16T12:53:41.426Z,100.00
2023-10-16T12:56:14.203Z,100.00
2023-10-16T12:58:46.577Z,100.00
2023-10-16T13:01:23.351Z,100.00
2023-10-16T13:04:01.632Z,100.00
2023-10-16T13:06:35.531Z,100.00
2023-10-16T13:09:15.928Z,100.00
2023-10-16T13:11:48.581Z,100.00
2023-10-16T13:14:20.456Z,100.00
2023-10-16T13:16:55.918Z,100.00
2023-10-16T13:19:29.094Z,100.00
2023-10-16T13:22:09.362Z,100.00
2023-10-16T13:24:43.792Z,100.00
2023-10-16T13:27:17.973Z,100.00
2023-10-16T13:29:53.174Z,100.00
2023-10-16T13:32:27.409Z,100.00
2023-10-16T13:35:01.580Z,100.00
2023-10-16T13:37:35.204Z,100.00
2023-10-16T13:40:17.283Z,100.00
2023-10-16T13:42:49.146Z,100.00
2023-10-16T13:45:23.323Z,100.00
2023-10-16T13:47:56.116Z,100.00
2023-10-16T13:50:29.715Z,100.00
2023-10-16T13:53:01.056Z,99.60
2023-10-16T13:55:32.860Z,99.03
2023-10-16T13:58:07.087Z,98.06
2023-10-16T14:00:39.854Z,97.82
2023-10-16T14:03:18.643Z,95.69
2023-10-16T14:05:52.176Z,95.22
2023-10-16T14:08:32.484Z,95.00
2023-10-16T14:11:05.261Z,94.23
2023-10-16T14:13:38.992Z,92.82
2023-10-16T14:16:13.189Z,92.58
2023-10-16T14:18:45.765Z,92.80
2023-10-16T14:21:18.240Z,92.68
2023-10-16T14:23:49.982Z,92.79
2023-10-16T14:26:25.965Z,91.28
2023-10-16T14:29:01.184Z,91.13
2023-10-16T14:31:35.190Z,92.11
2023-10-16T14:34:08.522Z,92.03
2023-10-16T14:36:42.100Z,91.70
2023-10-16T14:39:14.901Z,91.20
2023-10-16T14:41:51.173Z,90.62
2023-10-16T14:44:33.174Z,91.83
2023-10-16T14:47:10.987Z,92.01
2023-10-16T14:49:43.391Z,91.58
2023-10-16T14:52:15.747Z,92.96
2023-10-16T14:54:48.137Z,93.75
2023-10-16T14:57:25.742Z,91.17
2023-10-16T14:59:58.624Z,91.81
2023-10-16T15:02:30.802Z,91.90
2023-10-16T15:05:03.248Z,92.72
2023-10-16T15:07:34.655Z,92.40
2023-10-16T15:10:07.946Z,92.28
2023-10-16T15:12:41.235Z,93.08
2023-10-16T15:15:14.361Z,94.11
2023-10-16T15:17:46.911Z,94.50
2023-10-16T15:20:20.051Z,95.44
2023-10-16T15:22:51.794Z,96.56
2023-10-16T15:25:23.910Z,96.97
2023-10-16T15:27:56.371Z,98.30
2023-10-16T15:30:29.330Z,98.70
2023-10-16T15:33:01.757Z,99.87
2023-10-16T15:35:34.273Z,99.91
2023-10-16T15:38:07.649Z,99.95
2023-10-16T15:40:44.494Z,100.00
2023-10-16T15:43:18.620Z,100.00
2023-10-16T15:45:50.783Z,100.00
2023-10-16T15:48:23.072Z,100.00
2023-10-16T15:50:55.685Z,100.00
2023-10-16T15:53:27.201Z,100.00
2023-10-16T15:55:59.167Z,100.00
2023-10-16T15:58:31.539Z,100.00
2023-10-16T16:01:07.067Z,100.00
2023-10-16T16:03:41.082Z,100.00
2023-10-16T16:06:18.764Z,100.00
2023-10-16T16:08:50.844Z,100.00
2023-10-16T16:11:28.668Z,100.00
2023-10-16T16:14:00.841Z,100.00
2023-10-16T16:16:33.982Z,100.00
2023-10-16T16:19:07.266Z,100.00
2023-10-16T16:21:40.729Z,100.00
2023-10-16T16:24:14.029Z,100.00
2023-10-16T16:26:46.463Z,100.00
2023-10-16T16:29:18.240Z,100.00
2023-10-16T16:31:50.423Z,100.00
2023-10-16T16:34:23.655Z,100.00
2023-10-16T16:36:55.737Z,100.00
2023-10-16T16:39:30.362Z,100.00
2023-10-16T16:42:02.589Z,100.00
2023-10-16T16:44:34.693Z,100.00
2023-10-16T16:47:07.678Z,100.00
2023-10-16T16:49:40.659Z,100.00
2023-10-16T16:52:13.033Z,100.00
2023-10-16T16:54:45.703Z,100.00
2023-10-16T16:57:17.825Z,100.00
2023-10-16T16:59:49.977Z,100.00
2023-10-16T17:02:22.562Z,100.00
2023-10-16T17:04:55.580Z,100.00
2023-10-16T17:07:31.417Z,100.00
2023-10-16T17:10:03.798Z,100.00
2023-10-16T17:12:37.759Z,100.00
2023-10-16T17:15:13.335Z,100.00
2023-10-16T17:17:46.081Z,100.00
2023-10-16T17:20:18.534Z,100.00
2023-10-16T17:25:28.601Z,100.00
2023-10-16T17:28:00.612Z,100.00
2023-10-16T17:30:33.454Z,100.00
2023-10-16T17:33:08.384Z,100.00
2023-10-16T17:35:40.391Z,100.00
2023-10-16T17:38:11.994Z,100.00
2023-10-16T17:40:46.221Z,100.00
2023-10-16T17:43:20.161Z,100.00
2023-10-16T17:45:52.322Z,100.00
2023-10-16T17:48:26.824Z,100.00
2023-10-16T17:50:59.740Z,100.00
2023-10-16T17:53:31.853Z,100.00
2023-10-16T17:56:04.019Z,100.00
2023-10-16T17:58:38.227Z,100.00
2023-10-16T18:01:15.517Z,100.00
2023-10-16T18:03:48.213Z,100.00
2023-10-16T18:06:22.007Z,100.00
2023-10-16T18:08:54.907Z,100.00
2023-10-16T18:11:27.277Z,100.00
2023-10-16T18:13:59.424Z,100.00
2023-10-16T18:16:32.827Z,100.00
2023-10-16T18:19:05.333Z,100.00
2023-10-16T18:21:41.731Z,100.00
2023-10-16T18:24:16.624Z,100.00
2023-10-16T18:26:50.295Z,100.00
2023-10-16T18:29:22.033Z,100.00
2023-10-16T18:31:55.051Z,100.00
2023-10-16T18:34:28.425Z,100.00
2023-10-16T18:37:01.438Z,100.00
2023-10-16T18:39:34.744Z,100.00
2023-10-16T18:42:08.865Z,100.00
2023-10-16T18:44:43.733Z,100.00
2023-10-16T18:47:18.923Z,100.00
2023-10-16T18:49:51.270Z,100.00
2023-10-16T18:52:23.666Z,100.00
2023-10-16T18:54:56.329Z,100.00
2023-10-16T18:57:30.001Z,100.00
2023-10-16T19:00:02.416Z,100.00
2023-10-16T19:02:34.762Z,100.00
2023-10-16T19:05:09.666Z,100.00
2023-10-16T19:07:40.946Z,100.00
2023-10-16T19:10:16.362Z,100.00
2023-10-16T19:12:48.097Z,100.00
2023-10-16T19:15:20.875Z,100.00
2023-10-16T19:17:54.332Z,100.00
2023-10-16T19:20:27.102Z,100.00
2023-10-16T19:22:58.472Z,100.00
2023-10-16T19:25:30.992Z,100.00
2023-10-16T19:28:05.097Z,100.00
2023-10-16T19:30:37.785Z,100.00
2023-10-16T19:33:11.703Z,100.00
2023-10-16T19:35:44.781Z,100.00
2023-10-16T19:38:16.529Z,100.00
2023-10-16T19:40:49.519Z,100.00
2023-10-16T19:43:21.400Z,100.00
2023-10-16T19:45:56.056Z,100.00
2023-10-16T19:48:28.174Z,100.00
2023-10-16T19:51:00.478Z,100.00
2023-10-16T19:53:32.139Z,100.00
2023-10-16T19:56:03.678Z,100.00
2023-10-16T19:58:35.903Z,100.00
2023-10-16T20:01:07.772Z,100.00
2023-10-16T20:03:40.354Z,100.00
2023-10-16T20:06:12.761Z,100.00
2023-10-16T20:08:44.786Z,100.00
2023-10-16T20:11:17.383Z,100.00
2023-10-16T20:13:49.181Z,100.00
2023-10-16T20:16:21.729Z,100.00
2023-10-16T20:18:54.876Z,100.00
2023-10-16T20:21:26.868Z,100.00
2023-10-16T20:24:05.131Z,100.00
2023-10-16T20:26:38.128Z,100.00
2023-10-16T20:29:10.301Z,100.00
2023-10-16T20:31:57.792Z,100.00
2023-10-16T20:34:32.858Z,100.00
2023-10-16T20:37:05.640Z,100.00
2023-10-16T20:39:37.856Z,100.00
2023-10-16T20:42:10.452Z,100.00
2023-10-16T20:44:42.877Z,100.00
2023-10-16T20:47:14.727Z,100.00
2023-10-16T20:49:47.083Z,100.00
2023-10-16T20:52:20.480Z,100.00
2023-10-16T20:54:53.053Z,100.00
2023-10-16T20:57:25.191Z,100.00
2023-10-16T20:59:56.811Z,100.00
2023-10-16T21:02:28.534Z,100.00
2023-10-16T21:05:00.184Z,100.00
2023-10-16T21:07:32.653Z,100.00
2023-10-16T21:10:06.707Z,100.00
2023-10-16T21:12:38.422Z,100.00
2023-10-16T21:15:13.487Z,100.00
2023-10-16T21:17:45.954Z,100.00
2023-10-16T21:20:19.023Z,100.00
2023-10-16T21:22:51.150Z,100.00
2023-10-16T21:25:25.941Z,100.00
2023-10-16T21:27:58.176Z,100.00
2023-10-16T21:30:30.660Z,100.00
2023-10-16T21:33:03.217Z,100.00
2023-10-16T21:35:35.287Z,100.00
2023-10-16T21:38:07.045Z,100.00
2023-10-16T21:40:39.414Z,100.00
2023-10-16T21:43:11.787Z,100.00
2023-10-16T21:45:44.083Z,100.00
2023-10-16T21:48:16.514Z,100.00
2023-10-16T21:50:48.571Z,100.00
2023-10-16T21:53:20.252Z,100.00
2023-10-16T21:55:52.968Z,100.00
2023-10-16T21:58:24.636Z,100.00
2023-10-16T22:01:00.920Z,100.00
2023-10-16T22:03:32.759Z,100.00
2023-10-16T22:06:05.493Z,100.00
2023-10-16T22:08:37.787Z,100.00
2023-10-16T22:11:14.007Z,100.00
2023-10-16T22:13:45.974Z,100.00
2023-10-16T22:16:18.158Z,100.00
2023-10-16T22:18:52.440Z,100.00
2023-10-16T22:21:24.524Z,100.00
2023-10-16T22:23:56.075Z,100.00
2023-10-16T22:26:28.503Z,100.00
2023-10-16T22:29:00.486Z,100.00
2023-10-16T22:31:32.307Z,100.00
2023-10-16T22:34:05.165Z,100.00
2023-10-16T22:36:36.967Z,100.00
2023-10-16T22:39:11.467Z,100.00
2023-10-16T22:41:43.495Z,100.00
2023-10-16T22:44:15.852Z,100.00
2023-10-16T22:46:51.333Z,100.00
2023-10-16T22:49:23.886Z,100.00
2023-10-16T22:51:56.239Z,100.00
2023-10-16T22:54:28.834Z,100.00
2023-10-16T22:57:01.411Z,100.00
2023-10-16T22:59:33.355Z,100.00
2023-10-16T23:02:06.115Z,100.00
2023-10-16T23:04:42.280Z,100.00
2023-10-16T23:07:15.185Z,100.00
2023-10-16T23:09:48.247Z,100.00
2023-10-16T23:12:25.979Z,100.00
2023-10-16T23:15:02.836Z,100.00
2023-10-16T23:17:40.286Z,100.00
2023-10-16T23:20:18.155Z,100.00
2023-10-16T23:22:49.793Z,100.00
2023-10-16T23:25:22.962Z,100.00
2023-10-16T23:27:57.607Z,100.00
2023-10-16T23:30:34.856Z,100.00
2023-10-16T23:33:11.966Z,100.00
2023-10-16T23:35:44.267Z,100.00
2023-10-16T23:38:15.614Z,100.00
2023-10-16T23:40:58.710Z,100.00
2023-10-16T23:43:32.847Z,100.00
2023-10-16T23:46:07.496Z,100.00
2023-10-16T23:48:46.092Z,100.00
2023-10-16T23:51:23.422Z,100.00
2023-10-16T23:53:55.461Z,100.00
2023-10-16T23:56:39.592Z,100.00
2023-10-16T23:59:14.523Z,100.00
